East Farms, Washington
Current Conditions -  °F | °C
As of 6:53 AM on Sunday 23 Nov 2014 (Local Time) from KSFF Reporting Station
Overcast Overcast  
Wind Chill: 33°   Ceiling: 1100
Heat Index: 33°   Visibility: 10mi
Dew Point: 30°   Wind: 0mph
Humidity: 89%   Direction: NA
Pressure: 30.14"   Gusts: NA
Location:  47.7153°N, 117.066°W
Report Text: KSFF 231453Z 00000KT 10SM OVC011 01/M01 A3014 RMK AO2 SLP220 I1000 I3000 T00061011 50005
Loading
Personal Weather Stations






























Interactive Weather Map New forecast layout! Learn more

10-Day Weather Forecast

Advertisements
Track Severe Weather on mobile